createdAt,value
2016-12-14T17:17:47.406Z,10.41
2016-12-14T17:19:02.335Z,10.41
2016-12-14T17:20:17.470Z,10.41
2016-12-14T17:21:32.282Z,10.41
2016-12-14T17:22:48.482Z,10.44
2016-12-14T17:24:04.250Z,10.46
2016-12-14T17:25:19.302Z,10.47
2016-12-14T17:27:08.985Z,10.5
2016-12-14T17:28:24.755Z,10.5
2016-12-14T17:29:44.081Z,10.52
2016-12-14T17:30:58.869Z,10.51
2016-12-14T17:32:51.960Z,10.52
2016-12-14T17:34:07.151Z,10.51
2016-12-14T17:35:24.002Z,10.49
2016-12-14T17:36:38.426Z,10.49
2016-12-14T17:37:53.015Z,10.5
2016-12-14T17:39:07.779Z,10.49
2016-12-14T17:40:23.462Z,10.5
2016-12-14T17:41:38.810Z,10.51
2016-12-14T17:42:53.365Z,10.51
2016-12-14T17:44:08.037Z,10.49
2016-12-14T17:45:22.971Z,10.49
2016-12-14T17:46:38.608Z,10.51
2016-12-14T17:47:53.491Z,10.52
2016-12-14T17:49:09.182Z,10.53
2016-12-14T17:50:24.268Z,10.51
2016-12-14T17:51:39.730Z,10.51
2016-12-14T17:52:54.847Z,10.48
2016-12-14T17:54:24.341Z,10.46
2016-12-14T17:55:40.421Z,10.44
2016-12-14T17:56:56.445Z,10.46
2016-12-14T17:58:11.454Z,10.47
2016-12-14T17:59:26.670Z,10.51
2016-12-14T18:00:41.210Z,10.54
2016-12-14T18:01:56.693Z,10.55
2016-12-14T18:03:11.753Z,10.56
2016-12-14T18:04:27.395Z,10.57
2016-12-14T18:05:58.305Z,10.58
2016-12-14T18:07:13.185Z,10.61
2016-12-14T18:08:28.410Z,10.61
2016-12-14T18:09:43.835Z,10.62
2016-12-14T18:10:58.709Z,10.61
2016-12-14T18:12:13.346Z,10.59
2016-12-14T18:13:28.210Z,10.57
2016-12-14T18:14:42.713Z,10.57
2016-12-14T18:15:57.176Z,10.57
2016-12-14T18:17:12.144Z,10.58
2016-12-14T18:18:27.151Z,10.59
2016-12-14T18:19:41.448Z,10.61
2016-12-14T18:20:56.419Z,10.63
2016-12-14T18:22:11.108Z,10.65
2016-12-14T18:23:25.794Z,10.67
2016-12-14T18:24:40.844Z,10.69
2016-12-14T18:25:55.296Z,10.71
2016-12-14T18:27:10.315Z,10.73
2016-12-14T18:28:25.330Z,10.73
2016-12-14T18:29:39.856Z,10.75
2016-12-14T18:30:54.332Z,10.74
2016-12-14T18:32:09.139Z,10.75
2016-12-14T18:33:23.964Z,10.75
2016-12-14T18:34:39.112Z,10.75
2016-12-14T18:35:55.475Z,10.76
2016-12-14T18:37:10.833Z,10.78
2016-12-14T18:38:26.063Z,10.78
2016-12-14T18:39:41.563Z,10.79
2016-12-14T18:40:56.430Z,10.8
2016-12-14T18:42:11.609Z,10.81
2016-12-14T18:43:26.356Z,10.83
2016-12-14T18:44:41.278Z,10.85
2016-12-14T18:45:56.992Z,10.87
2016-12-14T18:47:12.892Z,10.87
2016-12-14T18:48:28.326Z,10.86
2016-12-14T18:49:43.747Z,10.85
2016-12-14T18:50:58.371Z,10.84
2016-12-14T18:52:12.905Z,10.79
2016-12-14T18:53:30.689Z,10.75
2016-12-14T18:54:45.476Z,10.69
2016-12-14T18:56:00.978Z,10.66
2016-12-14T18:57:15.433Z,10.62
2016-12-14T18:58:29.892Z,10.59
2016-12-14T18:59:45.508Z,10.58
2016-12-14T19:01:01.192Z,10.55
2016-12-14T19:02:16.106Z,10.53
2016-12-14T19:03:30.756Z,10.5
2016-12-14T19:04:46.506Z,10.47
2016-12-14T19:06:02.111Z,10.45
2016-12-14T19:07:18.289Z,10.46
2016-12-14T19:08:33.140Z,10.43
2016-12-14T19:09:48.708Z,10.45
2016-12-14T19:11:03.561Z,10.46
2016-12-14T19:12:19.240Z,10.49
2016-12-14T19:13:34.972Z,10.52
2016-12-14T19:14:52.740Z,10.55
2016-12-14T19:16:08.828Z,10.6
2016-12-14T19:17:23.311Z,10.63
2016-12-14T19:18:38.634Z,10.66
2016-12-14T19:19:54.227Z,10.69
2016-12-14T19:21:09.715Z,10.71
2016-12-14T19:22:29.153Z,10.71
2016-12-14T19:23:45.780Z,10.72
2016-12-14T19:26:32.038Z,10.76
2016-12-14T19:27:47.249Z,10.77
2016-12-14T19:29:02.604Z,10.76
2016-12-14T19:30:17.482Z,10.74
2016-12-14T19:31:33.734Z,10.7
2016-12-14T19:32:49.859Z,10.69
2016-12-14T19:34:06.038Z,10.66
2016-12-14T19:35:21.905Z,10.64
2016-12-14T19:36:37.522Z,10.58
2016-12-14T19:37:54.288Z,10.55
2016-12-14T19:39:10.871Z,10.53
2016-12-14T19:40:25.799Z,10.54
2016-12-14T19:41:42.241Z,10.54
2016-12-14T19:42:56.878Z,10.57
2016-12-14T19:44:12.630Z,10.59
2016-12-14T19:45:27.559Z,10.61
2016-12-14T19:47:09.306Z,10.63
2016-12-14T19:48:25.150Z,10.6
2016-12-14T19:49:41.340Z,10.56
2016-12-14T19:51:12.515Z,10.55
2016-12-14T19:52:31.742Z,10.53
2016-12-14T19:54:06.027Z,10.48
2016-12-14T19:55:23.170Z,10.44
2016-12-14T19:56:39.156Z,10.36
2016-12-14T19:57:54.800Z,10.29
2016-12-14T19:59:10.537Z,10.22
2016-12-14T20:00:26.577Z,10.18
2016-12-14T20:01:46.124Z,10.17
2016-12-14T20:03:16.758Z,10.18
2016-12-14T20:05:02.024Z,10.2
2016-12-14T20:06:18.861Z,10.23
2016-12-14T20:07:34.538Z,10.24
2016-12-14T20:08:50.131Z,10.26
2016-12-14T20:10:07.325Z,10.25
2016-12-14T20:11:22.927Z,10.27
2016-12-14T20:12:38.839Z,10.26
2016-12-14T20:13:57.467Z,10.24
2016-12-14T20:15:27.479Z,10.14
2016-12-14T20:16:43.614Z,10.08
2016-12-14T20:17:59.568Z,10.02
2016-12-14T20:19:14.556Z,9.97
2016-12-14T20:20:29.489Z,9.92
2016-12-14T20:24:34.797Z,9.62
2016-12-14T20:26:10.019Z,9.52
2016-12-14T20:27:43.604Z,9.51
2016-12-14T20:29:18.276Z,9.56
2016-12-14T20:30:53.428Z,9.6
2016-12-14T20:32:27.255Z,9.63
2016-12-14T20:34:00.866Z,9.65
2016-12-14T20:35:34.478Z,9.67
2016-12-14T20:37:28.819Z,9.71
2016-12-14T20:39:03.453Z,9.74
2016-12-14T20:40:39.708Z,9.72
2016-12-14T20:42:14.548Z,9.73
2016-12-14T20:43:49.304Z,9.74
2016-12-14T20:45:44.519Z,9.72
2016-12-14T20:47:20.203Z,9.74
2016-12-14T20:48:54.886Z,9.76
2016-12-14T20:50:29.270Z,9.79
2016-12-14T20:52:05.420Z,9.81
2016-12-14T20:54:03.739Z,9.82
2016-12-14T20:55:34.532Z,9.87
2016-12-14T20:57:09.181Z,9.89
2016-12-14T20:58:43.994Z,9.92
2016-12-14T21:00:18.052Z,9.92
2016-12-14T21:01:52.244Z,9.9
2016-12-14T21:03:26.286Z,9.89
2016-12-14T21:04:59.768Z,9.87
2016-12-14T21:06:34.244Z,9.89
2016-12-14T21:08:27.980Z,9.88
2016-12-14T21:10:02.186Z,9.86
2016-12-14T21:11:35.963Z,9.84
2016-12-14T21:13:11.186Z,9.81
2016-12-14T21:14:48.306Z,9.76
2016-12-14T21:16:22.004Z,9.68
2016-12-14T21:17:56.616Z,9.64
2016-12-14T21:19:50.051Z,9.62
2016-12-14T21:21:24.992Z,9.56
2016-12-14T21:22:59.274Z,9.58
2016-12-14T21:24:33.820Z,9.6
2016-12-14T21:26:08.600Z,9.64
2016-12-14T21:27:42.750Z,9.75
2016-12-14T21:29:17.240Z,9.85
2016-12-14T21:30:51.384Z,9.94
2016-12-14T21:32:45.133Z,10.02
2016-12-14T21:34:20.274Z,10.06
2016-12-14T21:35:54.554Z,10.13
2016-12-14T21:37:28.526Z,10.19
2016-12-14T21:39:02.654Z,10.26
2016-12-14T21:40:31.857Z,10.3
2016-12-14T21:42:06.060Z,10.32
2016-12-14T21:43:39.988Z,10.34
2016-12-14T21:45:14.481Z,10.36
2016-12-14T21:46:48.100Z,10.39
2016-12-14T21:48:22.554Z,10.41
2016-12-14T21:49:51.518Z,10.45
2016-12-14T21:51:25.447Z,10.49
2016-12-14T21:52:59.033Z,10.49
2016-12-14T21:54:31.394Z,10.53
2016-12-14T21:56:05.291Z,10.55
2016-12-14T21:57:39.363Z,10.58
2016-12-14T21:59:12.998Z,10.61
2016-12-14T22:00:46.938Z,10.65
2016-12-14T22:02:21.381Z,10.67
2016-12-14T22:04:15.613Z,10.71
2016-12-14T22:05:49.418Z,10.73
2016-12-14T22:07:19.249Z,10.72
2016-12-14T22:08:33.802Z,10.71
2016-12-14T22:10:27.293Z,10.69
2016-12-14T22:12:01.104Z,10.63
2016-12-14T22:13:34.544Z,10.59
2016-12-14T22:15:08.182Z,10.58
2016-12-14T22:16:37.399Z,10.58
2016-12-14T22:18:11.047Z,10.6
2016-12-14T22:19:44.381Z,10.6
2016-12-14T22:21:18.276Z,10.61
2016-12-14T22:22:52.119Z,10.63
2016-12-14T22:24:26.009Z,10.65
2016-12-14T22:25:59.769Z,10.65
2016-12-14T22:27:33.424Z,10.66
2016-12-14T22:29:07.360Z,10.69
2016-12-14T22:30:41.168Z,10.71
2016-12-14T22:32:14.756Z,10.69
2016-12-14T22:33:48.803Z,10.66
2016-12-14T22:35:22.603Z,10.64
2016-12-14T22:36:56.060Z,10.58
2016-12-14T22:38:29.754Z,10.57
2016-12-14T22:40:03.533Z,10.59
2016-12-14T22:41:56.756Z,10.61
2016-12-14T22:43:30.238Z,10.63
2016-12-14T22:45:04.378Z,10.65
2016-12-14T22:46:38.275Z,10.65
2016-12-14T22:48:12.081Z,10.65
2016-12-14T22:49:46.420Z,10.6
2016-12-14T22:51:20.237Z,10.52
2016-12-14T22:52:54.342Z,10.44
2016-12-14T22:54:28.334Z,10.34
2016-12-14T22:56:24.028Z,10.22
2016-12-14T22:57:57.391Z,10.13
2016-12-14T22:59:31.566Z,10.03
2016-12-14T23:01:05.093Z,10
2016-12-14T23:02:38.658Z,9.96
2016-12-14T23:04:12.113Z,9.96
2016-12-14T23:05:45.449Z,9.99
2016-12-14T23:07:19.166Z,9.99
2016-12-14T23:08:53.525Z,10.02
2016-12-14T23:10:27.055Z,9.98
2016-12-14T23:12:00.602Z,9.95
2016-12-14T23:13:35.382Z,9.92
2016-12-14T23:15:09.132Z,9.91
2016-12-14T23:16:43.338Z,9.9
2016-12-14T23:18:39.361Z,9.88
2016-12-14T23:20:12.832Z,9.9
2016-12-14T23:21:46.896Z,9.89
2016-12-14T23:23:20.865Z,9.89
2016-12-14T23:24:54.885Z,9.9
2016-12-14T23:26:30.767Z,9.9
2016-12-14T23:28:05.637Z,9.92
2016-12-14T23:29:39.239Z,9.89
2016-12-14T23:31:13.166Z,9.9
2016-12-14T23:33:10.145Z,9.92
2016-12-14T23:34:44.033Z,9.93
2016-12-14T23:36:18.131Z,9.95
2016-12-14T23:37:52.392Z,9.98
2016-12-14T23:39:26.304Z,9.96
2016-12-14T23:41:00.437Z,9.92
2016-12-14T23:42:29.613Z,9.89
2016-12-14T23:44:04.309Z,9.83
2016-12-14T23:45:38.414Z,9.79
2016-12-14T23:47:12.214Z,9.82
2016-12-14T23:48:46.737Z,9.87
2016-12-14T23:50:42.219Z,9.92
2016-12-14T23:52:16.291Z,9.94
2016-12-14T23:53:49.754Z,9.95
2016-12-14T23:55:24.275Z,9.96
2016-12-14T23:56:58.080Z,9.97
2016-12-14T23:58:31.623Z,9.98
